createdAt,value
2023-01-29T00:00:10.286Z,2.28
2023-01-29T00:02:41.578Z,2.65
2023-01-29T00:05:26.413Z,2.55
2023-01-29T00:07:55.755Z,2.04
2023-01-29T00:10:26.269Z,2.15
2023-01-29T00:12:54.636Z,1.84
2023-01-29T00:15:23.408Z,1.92
2023-01-29T00:17:51.769Z,1.89
2023-01-29T00:20:20.739Z,1.90
2023-01-29T00:22:48.938Z,1.43
2023-01-29T00:25:17.418Z,1.56
2023-01-29T00:27:47.222Z,1.87
2023-01-29T00:30:20.080Z,1.65
2023-01-29T00:32:48.511Z,1.67
2023-01-29T00:35:16.997Z,1.31
2023-01-29T00:37:45.461Z,1.41
2023-01-29T00:40:14.309Z,1.57
2023-01-29T00:43:00.455Z,0.98
2023-01-29T00:45:30.407Z,1.49
2023-01-29T00:47:58.932Z,1.32
2023-01-29T00:50:27.206Z,1.31
2023-01-29T00:52:55.730Z,1.31
2023-01-29T00:55:24.367Z,1.25
2023-01-29T00:57:52.437Z,1.85
2023-01-29T01:00:22.331Z,1.75
2023-01-29T01:03:06.152Z,1.45
2023-01-29T01:05:34.784Z,1.20
2023-01-29T01:08:03.113Z,1.47
2023-01-29T01:10:32.354Z,1.03
2023-01-29T01:13:02.327Z,1.36
2023-01-29T01:15:33.319Z,1.50
2023-01-29T01:18:03.931Z,1.35
2023-01-29T01:20:35.004Z,1.92
2023-01-29T01:23:04.619Z,1.63
2023-01-29T01:25:33.606Z,1.96
2023-01-29T01:28:02.248Z,1.75
2023-01-29T01:30:33.702Z,1.81
2023-01-29T01:33:03.847Z,1.73
2023-01-29T01:35:32.517Z,1.46
2023-01-29T01:38:00.932Z,1.69
2023-01-29T01:40:28.904Z,1.50
2023-01-29T01:42:59.600Z,1.72
2023-01-29T01:45:30.607Z,1.59
2023-01-29T01:48:02.508Z,1.79
2023-01-29T01:50:39.484Z,1.93
2023-01-29T01:53:10.431Z,1.34
2023-01-29T01:55:44.409Z,1.49
2023-01-29T01:58:20.829Z,1.11
2023-01-29T02:00:49.557Z,1.19
2023-01-29T02:03:38.571Z,1.15
2023-01-29T02:06:27.304Z,1.47
2023-01-29T02:09:19.102Z,1.53
2023-01-29T02:11:47.333Z,1.02
2023-01-29T02:14:17.161Z,1.22
2023-01-29T02:16:45.319Z,1.01
2023-01-29T02:19:22.973Z,1.30
2023-01-29T02:22:11.672Z,1.52
2023-01-29T02:25:15.427Z,1.23
2023-01-29T02:28:24.101Z,1.22
2023-01-29T02:31:04.309Z,1.22
2023-01-29T02:33:43.124Z,1.12
2023-01-29T02:36:20.930Z,1.18
2023-01-29T02:38:57.353Z,1.09
2023-01-29T02:41:31.460Z,1.19
2023-01-29T02:44:06.851Z,1.01
2023-01-29T02:46:41.514Z,1.19
2023-01-29T02:49:16.655Z,0.93
2023-01-29T02:51:51.357Z,0.86
2023-01-29T02:54:25.737Z,1.10
2023-01-29T02:56:59.144Z,1.19
2023-01-29T02:59:34.307Z,0.91
2023-01-29T03:02:08.303Z,1.13
2023-01-29T03:04:45.991Z,1.18
2023-01-29T03:07:41.308Z,0.91
2023-01-29T03:10:17.552Z,1.25
2023-01-29T03:12:51.214Z,1.21
2023-01-29T03:15:25.289Z,0.97
2023-01-29T03:18:27.962Z,0.97
2023-01-29T03:21:26.407Z,0.78
2023-01-29T03:24:13.886Z,0.35
2023-01-29T03:27:02.660Z,0.31
2023-01-29T03:29:55.626Z,0.18
2023-01-29T03:32:31.094Z,0.61
2023-01-29T03:35:06.461Z,0.79
2023-01-29T03:37:39.209Z,0.84
2023-01-29T03:40:10.487Z,1.09
2023-01-29T03:42:55.405Z,1.39
2023-01-29T03:45:32.404Z,1.48
2023-01-29T03:48:09.513Z,1.26
2023-01-29T03:50:46.702Z,1.26
2023-01-29T03:53:23.889Z,1.16
2023-01-29T03:55:58.330Z,0.73
2023-01-29T03:58:37.343Z,0.92
2023-01-29T04:01:12.237Z,0.63
2023-01-29T04:03:44.444Z,0.43
2023-01-29T04:06:20.028Z,0.26
2023-01-29T04:09:03.401Z,0.30
2023-01-29T04:11:35.571Z,-0.02
2023-01-29T04:14:03.943Z,0.24
2023-01-29T04:16:37.734Z,0.19
2023-01-29T04:19:26.464Z,0.53
2023-01-29T04:22:03.357Z,0.32
2023-01-29T04:24:32.372Z,0.38
2023-01-29T04:27:13.404Z,0.29
2023-01-29T04:29:56.262Z,0.34
2023-01-29T04:32:29.814Z,0.25
2023-01-29T04:35:02.962Z,0.27
2023-01-29T04:37:41.684Z,-0.07
2023-01-29T04:40:21.220Z,-0.34
2023-01-29T04:42:55.423Z,-0.54
2023-01-29T04:45:33.540Z,-0.59
2023-01-29T04:48:11.469Z,-0.32
2023-01-29T04:50:43.416Z,-0.56
2023-01-29T04:53:20.130Z,-0.70
2023-01-29T04:55:52.909Z,-0.95
2023-01-29T04:58:27.947Z,-0.65
2023-01-29T05:00:56.578Z,-0.57
2023-01-29T05:03:27.846Z,-0.44
2023-01-29T05:05:58.574Z,-0.80
2023-01-29T05:08:31.747Z,-0.38
2023-01-29T05:11:01.759Z,-0.69
2023-01-29T05:13:31.979Z,-0.70
2023-01-29T05:16:04.709Z,-0.65
2023-01-29T05:18:33.313Z,-0.62
2023-01-29T05:21:07.146Z,-0.47
2023-01-29T05:23:37.062Z,-0.67
2023-01-29T05:26:06.414Z,-0.71
2023-01-29T05:28:33.912Z,-0.63
2023-01-29T05:31:02.010Z,-0.93
2023-01-29T05:33:31.907Z,-0.78
2023-01-29T05:36:01.112Z,-0.66
2023-01-29T05:38:29.173Z,-0.67
2023-01-29T05:41:01.129Z,-0.63
2023-01-29T05:43:29.241Z,-0.74
2023-01-29T05:45:59.386Z,-0.91
2023-01-29T05:48:30.074Z,-0.50
2023-01-29T05:51:01.823Z,-0.76
2023-01-29T05:53:30.517Z,-0.53
2023-01-29T05:56:02.484Z,-0.65
2023-01-29T05:58:32.240Z,-0.62
2023-01-29T06:01:09.781Z,-0.46
2023-01-29T06:03:38.027Z,-0.70
2023-01-29T06:06:06.620Z,-0.89
2023-01-29T06:08:34.909Z,-0.36
2023-01-29T06:11:05.388Z,-0.50
2023-01-29T06:13:33.501Z,-0.38
2023-01-29T06:16:01.634Z,-0.40
2023-01-29T06:18:29.892Z,0.16
2023-01-29T06:21:02.030Z,0.01
2023-01-29T06:23:30.696Z,-0.10
2023-01-29T06:26:01.627Z,-0.07
2023-01-29T06:28:31.975Z,0.15
2023-01-29T06:31:12.014Z,0.20
2023-01-29T06:33:48.978Z,0.12
2023-01-29T06:36:17.112Z,0.65
2023-01-29T06:38:45.379Z,0.94
2023-01-29T06:41:17.499Z,0.63
2023-01-29T06:43:48.310Z,0.94
2023-01-29T06:46:16.633Z,0.98
2023-01-29T06:48:45.097Z,0.07
2023-01-29T06:51:13.769Z,0.66
2023-01-29T06:53:44.116Z,0.66
2023-01-29T06:56:14.239Z,0.83
2023-01-29T06:58:43.658Z,0.88
2023-01-29T07:01:29.290Z,0.93
2023-01-29T07:04:03.048Z,1.17
2023-01-29T07:06:31.906Z,1.18
2023-01-29T07:09:00.381Z,1.13
2023-01-29T07:11:28.397Z,1.26
2023-01-29T07:13:56.786Z,1.26
2023-01-29T07:16:27.404Z,1.34
2023-01-29T07:18:55.473Z,1.60
2023-01-29T07:21:23.923Z,1.37
2023-01-29T07:23:52.194Z,1.22
2023-01-29T07:26:20.982Z,1.34
2023-01-29T07:28:49.551Z,1.45
2023-01-29T07:31:17.979Z,1.03
2023-01-29T07:33:48.262Z,1.31
2023-01-29T07:36:16.341Z,0.89
2023-01-29T07:38:44.535Z,1.31
2023-01-29T07:41:13.594Z,1.46
2023-01-29T07:43:46.083Z,1.49
2023-01-29T07:46:14.535Z,1.33
2023-01-29T07:48:42.693Z,0.92
2023-01-29T07:51:12.665Z,0.93
2023-01-29T07:53:40.737Z,1.17
2023-01-29T07:56:09.547Z,1.09
2023-01-29T07:58:37.927Z,0.76
2023-01-29T08:01:12.146Z,0.97
2023-01-29T08:04:06.275Z,1.14
2023-01-29T08:06:35.975Z,0.96
2023-01-29T08:09:04.368Z,1.21
2023-01-29T08:11:32.604Z,1.17
2023-01-29T08:14:00.708Z,1.09
2023-01-29T08:16:28.989Z,1.05
2023-01-29T08:18:57.169Z,1.11
2023-01-29T08:21:25.512Z,0.78
2023-01-29T08:23:55.132Z,1.05
2023-01-29T08:26:23.364Z,1.55
2023-01-29T08:28:51.429Z,1.37
2023-01-29T08:31:21.232Z,1.73
2023-01-29T08:33:49.825Z,2.01
2023-01-29T08:36:18.136Z,1.60
2023-01-29T08:38:46.366Z,1.86
2023-01-29T08:41:16.153Z,2.13
2023-01-29T08:43:44.287Z,1.82
2023-01-29T08:46:12.339Z,1.87
2023-01-29T08:48:41.204Z,1.85
2023-01-29T08:51:10.246Z,2.05
2023-01-29T08:53:38.376Z,2.38
2023-01-29T08:56:07.177Z,2.49
2023-01-29T08:58:37.045Z,3.01
2023-01-29T09:01:09.590Z,2.45
2023-01-29T09:03:40.946Z,2.70
2023-01-29T09:06:10.994Z,2.47
2023-01-29T09:08:39.713Z,2.03
2023-01-29T09:11:07.999Z,1.67
2023-01-29T09:13:38.021Z,1.97
2023-01-29T09:16:06.707Z,2.01
2023-01-29T09:18:34.853Z,1.70
2023-01-29T09:21:03.663Z,1.95
2023-01-29T09:23:31.705Z,1.90
2023-01-29T09:26:01.367Z,1.88
2023-01-29T09:28:30.099Z,1.98
2023-01-29T09:31:02.225Z,2.11
2023-01-29T09:33:32.712Z,1.79
2023-01-29T09:36:00.995Z,1.48
2023-01-29T09:38:29.089Z,2.28
2023-01-29T09:41:05.379Z,2.12
2023-01-29T09:43:44.133Z,2.15
2023-01-29T09:46:22.158Z,2.54
2023-01-29T09:49:03.188Z,2.29
2023-01-29T09:51:36.666Z,2.24
2023-01-29T09:54:17.408Z,2.32
2023-01-29T09:56:47.741Z,2.75
2023-01-29T09:59:20.163Z,2.58
2023-01-29T10:02:00.628Z,1.93
2023-01-29T10:04:50.872Z,2.55
2023-01-29T10:07:35.441Z,2.41
2023-01-29T10:10:19.864Z,2.63
2023-01-29T10:12:59.878Z,2.99
2023-01-29T10:15:42.660Z,2.77
2023-01-29T10:18:38.641Z,3.39
2023-01-29T10:21:20.884Z,3.22
2023-01-29T10:23:52.258Z,3.27
2023-01-29T10:26:24.804Z,3.57
2023-01-29T10:28:56.261Z,3.75
2023-01-29T10:31:35.280Z,4.03
2023-01-29T10:34:13.122Z,3.36
2023-01-29T10:36:45.062Z,3.33
2023-01-29T10:39:17.956Z,3.18
2023-01-29T10:42:03.509Z,3.40
2023-01-29T10:44:45.481Z,2.83
2023-01-29T10:47:41.708Z,3.37
2023-01-29T10:50:22.541Z,2.73
2023-01-29T10:53:06.213Z,3.05
2023-01-29T10:55:45.571Z,3.33
2023-01-29T10:58:27.693Z,3.36
2023-01-29T11:00:55.679Z,2.60
2023-01-29T11:03:28.313Z,2.96
2023-01-29T11:06:04.335Z,2.96
2023-01-29T11:08:38.563Z,2.83
2023-01-29T11:11:10.473Z,3.48
2023-01-29T11:13:44.024Z,3.52
2023-01-29T11:16:12.886Z,4.10
2023-01-29T11:18:58.754Z,3.92
2023-01-29T11:21:30.468Z,3.43
2023-01-29T11:24:12.700Z,3.08
2023-01-29T11:26:43.486Z,3.67
2023-01-29T11:29:35.988Z,3.64
2023-01-29T11:32:07.645Z,3.11
2023-01-29T11:34:35.764Z,3.49
2023-01-29T11:37:16.308Z,3.35
2023-01-29T11:39:47.240Z,3.57
2023-01-29T11:42:21.979Z,3.83
2023-01-29T11:44:50.794Z,3.78
2023-01-29T11:47:21.418Z,3.62
2023-01-29T11:49:51.749Z,3.35
2023-01-29T11:52:24.185Z,3.95
2023-01-29T11:54:57.134Z,4.61
2023-01-29T11:57:32.042Z,3.55
2023-01-29T12:00:04.275Z,3.62
2023-01-29T12:02:38.257Z,3.98
2023-01-29T12:05:15.726Z,3.95
2023-01-29T12:07:49.084Z,3.44
2023-01-29T12:10:32.846Z,3.66
2023-01-29T12:13:19.216Z,3.50
2023-01-29T12:15:48.873Z,3.12
2023-01-29T12:18:26.070Z,3.66
2023-01-29T12:20:58.683Z,3.63
2023-01-29T12:23:37.239Z,3.62
2023-01-29T12:26:10.694Z,3.73
2023-01-29T12:28:47.999Z,3.80
2023-01-29T12:31:28.543Z,4.25
2023-01-29T12:34:03.475Z,4.70
2023-01-29T12:36:38.344Z,4.59
2023-01-29T12:39:11.699Z,5.02
2023-01-29T12:41:46.163Z,5.25
2023-01-29T12:44:18.226Z,4.74
2023-01-29T12:46:50.735Z,4.63
2023-01-29T12:49:24.421Z,4.25
2023-01-29T12:52:00.269Z,4.57
2023-01-29T12:54:36.479Z,4.59
2023-01-29T12:57:09.660Z,4.68
2023-01-29T12:59:43.217Z,5.35
2023-01-29T13:02:24.960Z,4.76
2023-01-29T13:04:59.063Z,5.15
2023-01-29T13:07:32.148Z,4.98
2023-01-29T13:10:08.739Z,4.99
2023-01-29T13:12:38.295Z,4.25
2023-01-29T13:15:18.610Z,4.10
2023-01-29T13:17:52.155Z,4.59
2023-01-29T13:20:25.753Z,4.60
2023-01-29T13:22:57.577Z,4.44
2023-01-29T13:25:27.348Z,4.48
2023-01-29T13:27:56.565Z,4.83
2023-01-29T13:30:31.088Z,4.58
2023-01-29T13:33:10.483Z,4.45
2023-01-29T13:35:42.696Z,4.80
2023-01-29T13:38:25.654Z,4.31
2023-01-29T13:41:00.436Z,4.39
2023-01-29T13:43:29.170Z,4.19
2023-01-29T13:45:57.240Z,4.31
2023-01-29T13:48:28.528Z,4.22
2023-01-29T13:50:58.666Z,4.53
2023-01-29T13:53:30.632Z,4.60
2023-01-29T13:56:31.326Z,4.40
2023-01-29T13:58:59.888Z,4.65
2023-01-29T14:02:04.119Z,4.17
2023-01-29T14:04:34.203Z,4.16
2023-01-29T14:07:04.552Z,4.82
2023-01-29T14:10:03.435Z,4.53
2023-01-29T14:12:40.021Z,4.17
2023-01-29T14:15:23.309Z,3.83
2023-01-29T14:18:04.073Z,3.68
2023-01-29T14:20:45.430Z,4.42
2023-01-29T14:23:25.729Z,3.31
2023-01-29T14:25:54.093Z,3.22
2023-01-29T14:28:27.302Z,3.00
2023-01-29T14:30:56.624Z,3.42
2023-01-29T14:33:28.520Z,3.19
2023-01-29T14:35:59.618Z,2.98
2023-01-29T14:38:29.702Z,3.40
2023-01-29T14:41:08.651Z,2.87
2023-01-29T14:43:38.282Z,2.85
2023-01-29T14:46:44.572Z,2.97
2023-01-29T14:49:12.945Z,3.42
2023-01-29T14:51:45.803Z,3.45
2023-01-29T14:54:24.200Z,3.59
2023-01-29T14:57:00.504Z,3.77
2023-01-29T14:59:37.480Z,3.34
2023-01-29T15:02:16.831Z,2.94
2023-01-29T15:04:49.636Z,2.84
2023-01-29T15:07:28.978Z,3.29
2023-01-29T15:10:21.063Z,3.11
2023-01-29T15:12:55.423Z,3.37
2023-01-29T15:15:34.693Z,3.89
2023-01-29T15:18:07.029Z,3.94
2023-01-29T15:20:37.386Z,3.69
2023-01-29T15:23:23.867Z,3.75
2023-01-29T15:25:55.419Z,3.43
2023-01-29T15:28:23.916Z,3.53
2023-01-29T15:30:57.117Z,3.52
2023-01-29T15:33:25.907Z,3.44
2023-01-29T15:36:06.916Z,3.30
2023-01-29T15:38:38.445Z,3.59
2023-01-29T15:41:19.680Z,3.41
2023-01-29T15:43:49.637Z,3.39
2023-01-29T15:46:26.471Z,3.35
2023-01-29T15:48:56.132Z,3.76
2023-01-29T15:51:27.069Z,3.77
2023-01-29T15:53:57.568Z,2.78
2023-01-29T15:56:29.593Z,3.74
2023-01-29T15:59:00.528Z,2.75
2023-01-29T16:01:30.945Z,3.58
2023-01-29T16:04:02.509Z,3.36
2023-01-29T16:06:35.159Z,3.11
2023-01-29T16:09:06.137Z,3.14
2023-01-29T16:11:35.589Z,3.40
2023-01-29T16:14:05.164Z,3.14
2023-01-29T16:16:35.041Z,3.28
2023-01-29T16:19:15.762Z,3.59
2023-01-29T16:21:46.180Z,3.48
2023-01-29T16:24:22.363Z,3.46
2023-01-29T16:26:53.143Z,3.07
2023-01-29T16:29:23.713Z,3.41
2023-01-29T16:32:00.702Z,2.81
2023-01-29T16:34:33.939Z,2.77
2023-01-29T16:37:05.550Z,2.87
2023-01-29T16:39:37.822Z,3.15
2023-01-29T16:42:25.877Z,3.04
2023-01-29T16:45:26.984Z,3.26
2023-01-29T16:48:03.913Z,3.36
2023-01-29T16:50:40.739Z,3.50
2023-01-29T16:53:22.114Z,3.03
2023-01-29T16:55:53.428Z,3.06
2023-01-29T16:58:26.035Z,3.15
2023-01-29T17:00:57.954Z,3.11
2023-01-29T17:03:29.320Z,2.82
2023-01-29T17:05:58.127Z,2.86
2023-01-29T17:08:28.836Z,2.88
2023-01-29T17:10:57.542Z,2.91
2023-01-29T17:13:29.877Z,2.71
2023-01-29T17:16:02.918Z,2.58
2023-01-29T17:18:32.905Z,2.86
2023-01-29T17:21:01.155Z,2.96
2023-01-29T17:23:29.558Z,3.08
2023-01-29T17:25:58.513Z,2.99
2023-01-29T17:28:28.079Z,3.36
2023-01-29T17:31:05.896Z,2.86
2023-01-29T17:33:38.834Z,2.98
2023-01-29T17:36:12.099Z,3.03
2023-01-29T17:38:41.104Z,3.55
2023-01-29T17:41:14.493Z,3.13
2023-01-29T17:43:44.235Z,3.45
2023-01-29T17:46:15.499Z,3.18
2023-01-29T17:48:46.227Z,3.17
2023-01-29T17:51:16.891Z,3.35
2023-01-29T17:53:47.172Z,3.42
2023-01-29T17:56:18.047Z,3.87
2023-01-29T17:58:46.288Z,3.93
2023-01-29T18:01:14.521Z,3.65
2023-01-29T18:03:42.693Z,3.36
2023-01-29T18:06:21.527Z,3.05
2023-01-29T18:08:50.109Z,3.10
2023-01-29T18:11:18.149Z,3.58
2023-01-29T18:13:46.455Z,3.62
2023-01-29T18:16:14.601Z,3.48
2023-01-29T18:18:43.026Z,3.59
2023-01-29T18:21:12.624Z,3.83
2023-01-29T18:23:41.141Z,3.66
2023-01-29T18:26:12.253Z,3.75
2023-01-29T18:28:40.558Z,3.36
2023-01-29T18:31:08.970Z,3.33
2023-01-29T18:33:37.746Z,3.24
2023-01-29T18:36:06.778Z,2.87
2023-01-29T18:38:36.391Z,2.72
2023-01-29T18:41:06.003Z,3.05
2023-01-29T18:43:34.237Z,2.60
2023-01-29T18:46:02.523Z,2.71
2023-01-29T18:48:31.135Z,2.32
2023-01-29T18:50:59.512Z,2.89
2023-01-29T18:53:28.042Z,2.88
2023-01-29T18:55:58.686Z,2.21
2023-01-29T18:58:35.330Z,2.63
2023-01-29T19:01:09.417Z,3.04
2023-01-29T19:03:38.167Z,2.50
2023-01-29T19:06:07.949Z,2.80
2023-01-29T19:08:36.263Z,2.57
2023-01-29T19:11:08.334Z,3.11
2023-01-29T19:13:38.118Z,2.15
2023-01-29T19:16:09.195Z,2.57
2023-01-29T19:18:37.593Z,2.63
2023-01-29T19:21:10.167Z,2.76
2023-01-29T19:23:38.321Z,2.72
2023-01-29T19:26:08.489Z,2.83
2023-01-29T19:28:36.980Z,2.63
2023-01-29T19:31:05.395Z,2.47
2023-01-29T19:33:33.913Z,2.42
2023-01-29T19:36:02.834Z,2.32
2023-01-29T19:38:33.667Z,2.53
2023-01-29T19:41:01.851Z,2.55
2023-01-29T19:43:31.777Z,2.47
2023-01-29T19:46:01.584Z,2.12
2023-01-29T19:48:29.880Z,2.20
2023-01-29T19:51:00.355Z,2.29
2023-01-29T19:53:30.068Z,2.28
2023-01-29T19:55:59.427Z,2.28
2023-01-29T19:58:27.726Z,2.37
2023-01-29T20:00:58.595Z,2.27
2023-01-29T20:03:27.987Z,2.19
2023-01-29T20:05:56.063Z,1.99
2023-01-29T20:08:24.955Z,2.57
2023-01-29T20:10:53.401Z,2.71
2023-01-29T20:13:21.483Z,2.38
2023-01-29T20:15:51.251Z,2.68
2023-01-29T20:18:20.961Z,2.73
2023-01-29T20:20:53.185Z,2.45
2023-01-29T20:23:36.269Z,2.55
2023-01-29T20:26:06.602Z,2.86
2023-01-29T20:28:35.841Z,2.67
2023-01-29T20:31:04.839Z,2.73
2023-01-29T20:33:36.988Z,2.33
2023-01-29T20:36:09.206Z,2.69
2023-01-29T20:38:37.581Z,2.92
2023-01-29T20:41:07.623Z,2.85
2023-01-29T20:43:36.536Z,2.43
2023-01-29T20:46:06.477Z,2.26
2023-01-29T20:48:36.336Z,2.55
2023-01-29T20:51:06.642Z,1.88
2023-01-29T20:53:34.898Z,2.70
2023-01-29T20:56:04.765Z,2.32
2023-01-29T20:58:33.434Z,2.60
2023-01-29T21:01:01.809Z,2.42
2023-01-29T21:03:30.655Z,2.80
2023-01-29T21:06:00.197Z,2.88
2023-01-29T21:08:28.900Z,2.32
2023-01-29T21:10:57.078Z,3.02
2023-01-29T21:13:25.153Z,2.68
2023-01-29T21:15:54.001Z,2.63
2023-01-29T21:18:22.638Z,2.37
2023-01-29T21:20:51.331Z,2.68
2023-01-29T21:23:20.871Z,2.73
2023-01-29T21:25:49.182Z,2.08
2023-01-29T21:28:17.605Z,2.09
2023-01-29T21:30:46.607Z,1.87
2023-01-29T21:33:14.714Z,2.00
2023-01-29T21:35:45.141Z,1.59
2023-01-29T21:38:13.138Z,1.95
2023-01-29T21:40:42.468Z,1.58
2023-01-29T21:43:12.805Z,1.44
2023-01-29T21:45:41.811Z,1.57
2023-01-29T21:48:11.002Z,1.74
2023-01-29T21:50:39.501Z,1.36
2023-01-29T21:53:07.878Z,1.57
2023-01-29T21:55:36.145Z,1.41
2023-01-29T21:58:05.591Z,1.76
2023-01-29T22:00:34.110Z,1.35
2023-01-29T22:03:02.776Z,2.35
2023-01-29T22:05:30.852Z,2.43
2023-01-29T22:07:59.392Z,1.97
2023-01-29T22:10:28.642Z,1.74
2023-01-29T22:12:56.861Z,1.83
2023-01-29T22:15:26.439Z,1.74
2023-01-29T22:17:54.500Z,1.44
2023-01-29T22:20:29.764Z,1.07
2023-01-29T22:23:00.517Z,1.45
2023-01-29T22:25:29.241Z,1.08
2023-01-29T22:27:57.489Z,1.22
2023-01-29T22:30:27.630Z,0.88
2023-01-29T22:32:56.309Z,0.45
2023-01-29T22:35:24.503Z,0.53
2023-01-29T22:37:52.471Z,0.81
2023-01-29T22:40:21.157Z,0.75
2023-01-29T22:42:49.584Z,0.13
2023-01-29T22:45:18.087Z,0.88
2023-01-29T22:47:47.848Z,0.48
2023-01-29T22:50:16.311Z,0.39
2023-01-29T22:52:53.617Z,0.33
2023-01-29T22:55:21.954Z,0.48
2023-01-29T22:57:50.867Z,0.56
2023-01-29T23:00:20.164Z,0.93
2023-01-29T23:02:50.171Z,0.32
2023-01-29T23:05:18.920Z,0.33
2023-01-29T23:07:47.357Z,0.27
2023-01-29T23:10:17.044Z,0.72
2023-01-29T23:12:45.479Z,0.45
2023-01-29T23:15:13.896Z,0.72
2023-01-29T23:17:41.862Z,0.26
2023-01-29T23:20:12.907Z,0.14
2023-01-29T23:22:40.970Z,0.70
2023-01-29T23:25:09.798Z,0.65
2023-01-29T23:27:36.804Z,0.61
2023-01-29T23:30:06.679Z,0.30
2023-01-29T23:32:35.480Z,0.17
2023-01-29T23:35:03.727Z,0.36
2023-01-29T23:37:33.122Z,0.48
2023-01-29T23:40:01.095Z,0.30
2023-01-29T23:42:29.299Z,0.27
2023-01-29T23:44:57.430Z,0.21
2023-01-29T23:47:25.743Z,0.38
2023-01-29T23:49:53.906Z,0.15
2023-01-29T23:52:22.050Z,0.38
2023-01-29T23:54:51.449Z,0.67
2023-01-29T23:57:19.503Z,0.30
2023-01-29T23:59:47.685Z,0.86
